createdAt,value
2023-03-29T15:45:01.172Z,18.34
2023-03-29T15:50:07.284Z,19.04
2023-03-29T15:55:13.400Z,19.44
2023-03-29T16:00:22.536Z,19.62
2023-03-29T16:05:28.276Z,19.66
2023-03-29T16:10:33.587Z,19.75
2023-03-29T16:15:41.433Z,19.93
2023-03-29T16:20:46.916Z,20.02
2023-03-29T16:25:52.425Z,20.07
2023-03-29T16:31:00.511Z,20.09
2023-03-29T16:36:05.854Z,20.00
2023-03-29T16:41:13.615Z,19.98
2023-03-29T16:46:21.672Z,19.92
2023-03-29T16:51:27.560Z,19.79
2023-03-29T16:56:32.976Z,19.72
2023-03-29T17:01:41.015Z,19.65
2023-03-29T17:06:46.396Z,19.52
2023-03-29T17:11:51.701Z,19.41
2023-03-29T17:16:59.693Z,19.31
2023-03-29T17:22:05.282Z,19.19
2023-03-29T17:27:10.956Z,19.04
2023-03-29T17:32:18.909Z,18.90
2023-03-29T17:37:24.468Z,18.72
2023-03-29T17:42:29.977Z,18.55
2023-03-29T17:47:37.935Z,18.41
2023-03-29T17:52:43.974Z,18.30
2023-03-29T17:57:49.489Z,18.18
2023-03-29T18:02:57.664Z,18.09
2023-03-29T18:08:03.319Z,17.93
2023-03-29T18:13:11.407Z,17.82
2023-03-29T18:18:19.242Z,17.69
2023-03-29T18:23:24.463Z,17.57
2023-03-29T18:28:29.931Z,18.49
2023-03-29T18:33:38.139Z,17.64
2023-03-29T18:38:43.991Z,17.42
2023-03-29T18:43:49.612Z,17.29
2023-03-29T18:48:57.764Z,17.22
2023-03-29T18:54:04.366Z,17.11
2023-03-29T18:59:09.732Z,17.02
2023-03-29T19:04:19.722Z,16.99
2023-03-29T19:09:25.168Z,16.95
2023-03-29T19:14:30.872Z,16.92
2023-03-29T19:19:38.739Z,16.88
2023-03-29T19:24:44.169Z,16.81
2023-03-29T19:29:49.797Z,16.75
2023-03-29T19:34:58.537Z,16.73
2023-03-29T19:40:06.692Z,16.68
2023-03-29T19:45:14.306Z,16.65
2023-03-29T19:50:22.195Z,16.65
2023-03-29T19:55:27.565Z,16.60
2023-03-29T20:00:33.348Z,16.55
2023-03-29T20:05:42.147Z,16.54
2023-03-29T20:10:47.606Z,16.49
2023-03-29T20:15:52.950Z,16.47
2023-03-29T20:21:02.127Z,16.44
2023-03-29T20:26:07.852Z,16.35
2023-03-29T20:31:13.758Z,16.25
2023-03-29T20:36:23.135Z,16.18
2023-03-29T20:41:28.585Z,16.09
2023-03-29T20:46:37.968Z,16.00
2023-03-29T20:51:46.683Z,15.96
2023-03-29T20:56:52.000Z,15.92
2023-03-29T21:01:57.253Z,15.87
2023-03-29T21:07:05.381Z,15.81
2023-03-29T21:12:11.401Z,15.71
2023-03-29T21:17:16.937Z,15.66
2023-03-29T21:22:25.074Z,15.63
2023-03-29T21:27:30.618Z,15.58
2023-03-29T21:32:35.900Z,15.55
2023-03-29T21:37:43.852Z,15.55
2023-03-29T21:42:49.144Z,15.53
2023-03-29T21:47:54.345Z,15.55
2023-03-29T21:53:02.116Z,15.53
2023-03-29T21:58:07.430Z,15.51
2023-03-29T22:03:12.753Z,15.50
2023-03-29T22:08:20.876Z,15.51
2023-03-29T22:13:27.109Z,15.49
